KLGB/LGB METAR and TAF weather

Enter ICAO airport designator
Station Type Date Time Source
KLGB METAR 2022/01/29 12:53 UTC NOAA

KLGB 291253Z AUTO 30003KT 10SM CLR 10/M08 A3012 RMK AO2 SLP198 T01001083


Station Type Date Time Source
KLGB Decoded METAR 2022/01/29 12:53 UTC NOAA

LONG BEACH AIRPORT, CA, United States (KLGB) 33-49N 118-09W 10M
Jan 29, 2022 - 07:53 AM EST / 2022.01.29 1253 UTC
Wind: from the WNW (300 degrees) at 3 MPH (3 KT):0
Visibility: 10 mile(s):0
Sky conditions: clear
Temperature: 50.0 F (10.0 C)
Dew Point: 17.1 F (-8.3 C)
Relative Humidity: 26%
Pressure (altimeter): 30.12 in. Hg (1019 hPa)
ob: KLGB 291253Z AUTO 30003KT 10SM CLR 10/M08 A3012 RMK AO2 SLP198 T01001083
cycle: 13

Station Type Date Time Source
KLGB TAF 2022/01/29 12:27 UTC NOAA

TAF KLGB 291124Z 2912/3012 VRB03KT P6SM SCT200
FM292100 32006KT P6SM BKN150
FM300400 VRB03KT P6SM BKN250

Example: see airport list